createdAt,value
2022-11-29T00:01:01.716Z,50.08
2022-11-29T00:03:28.756Z,51.55
2022-11-29T00:05:55.978Z,53.75
2022-11-29T00:08:23.967Z,54.08
2022-11-29T00:10:50.742Z,53.08
2022-11-29T00:13:18.109Z,56.90
2022-11-29T00:15:44.554Z,55.17
2022-11-29T00:18:11.301Z,54.50
2022-11-29T00:20:39.122Z,54.38
2022-11-29T00:23:05.713Z,55.92
2022-11-29T00:25:32.128Z,56.83
2022-11-29T00:27:58.551Z,54.60
2022-11-29T00:30:25.333Z,57.70
2022-11-29T00:32:51.796Z,53.88
2022-11-29T00:35:18.346Z,56.58
2022-11-29T00:37:45.213Z,58.35
2022-11-29T00:40:12.007Z,55.70
2022-11-29T00:42:38.431Z,61.58
2022-11-29T00:45:05.398Z,58.95
2022-11-29T00:47:31.801Z,56.85
2022-11-29T00:49:58.220Z,56.97
2022-11-29T00:52:24.636Z,57.67
2022-11-29T00:54:51.224Z,59.70
2022-11-29T00:57:17.595Z,61.05
2022-11-29T00:59:44.004Z,59.63
2022-11-29T01:02:10.941Z,57.22
2022-11-29T01:04:37.402Z,60.53
2022-11-29T01:07:03.888Z,58.13
2022-11-29T01:09:30.385Z,59.85
2022-11-29T01:11:56.776Z,60.88
2022-11-29T01:14:23.229Z,60.78
2022-11-29T01:16:49.660Z,60.90
2022-11-29T01:19:16.063Z,62.70
2022-11-29T01:21:42.543Z,63.08
2022-11-29T01:24:08.951Z,65.82
2022-11-29T01:26:35.510Z,66.53
2022-11-29T01:29:01.997Z,62.38
2022-11-29T01:31:35.894Z,63.42
2022-11-29T01:34:03.982Z,62.92
2022-11-29T01:36:31.048Z,65.68
2022-11-29T01:39:00.273Z,64.85
2022-11-29T01:41:29.493Z,62.38
2022-11-29T01:43:58.750Z,64.50
2022-11-29T01:46:26.194Z,63.70
2022-11-29T01:48:57.513Z,60.75
2022-11-29T01:51:25.963Z,63.15
2022-11-29T01:53:53.386Z,61.70
2022-11-29T01:56:20.679Z,65.57
2022-11-29T01:58:47.511Z,65.68
2022-11-29T02:01:14.592Z,63.13
2022-11-29T02:03:41.241Z,64.32
2022-11-29T02:06:07.928Z,65.78
2022-11-29T02:08:41.140Z,63.33
2022-11-29T02:11:22.494Z,65.80
2022-11-29T02:14:20.943Z,61.75
2022-11-29T02:16:56.300Z,63.83
2022-11-29T02:19:59.958Z,63.80
2022-11-29T02:22:50.365Z,63.88
2022-11-29T02:25:50.693Z,65.72
2022-11-29T02:31:10.923Z,69.22
2022-11-29T02:33:52.678Z,65.25
2022-11-29T02:36:31.436Z,68.20
2022-11-29T02:39:13.242Z,68.47
2022-11-29T02:41:45.634Z,66.68
2022-11-29T02:44:36.674Z,68.80
2022-11-29T02:47:06.070Z,69.13
2022-11-29T02:50:07.660Z,64.70
2022-11-29T02:52:37.149Z,65.03
2022-11-29T02:55:15.593Z,64.85
2022-11-29T02:58:09.149Z,65.97
2022-11-29T03:00:41.412Z,67.38
2022-11-29T03:03:36.917Z,70.15
2022-11-29T03:06:28.613Z,69.05
2022-11-29T03:09:30.257Z,64.55
2022-11-29T03:12:15.455Z,64.93
2022-11-29T03:15:08.201Z,66.45
2022-11-29T03:18:00.077Z,64.90
2022-11-29T03:20:49.835Z,67.10
2022-11-29T03:23:19.867Z,65.95
2022-11-29T03:26:01.188Z,66.88
2022-11-29T03:28:45.998Z,68.30
2022-11-29T03:31:25.869Z,67.18
2022-11-29T03:34:32.775Z,67.70
2022-11-29T03:37:11.307Z,74.10
2022-11-29T03:39:45.395Z,67.00
2022-11-29T03:42:19.452Z,65.45
2022-11-29T03:45:28.642Z,64.80
2022-11-29T03:48:07.753Z,67.63
2022-11-29T03:50:50.653Z,69.03
2022-11-29T03:53:38.942Z,66.13
2022-11-29T03:56:30.667Z,69.22
2022-11-29T03:59:28.933Z,65.97
2022-11-29T04:02:23.300Z,64.07
2022-11-29T04:05:23.125Z,66.65
2022-11-29T04:08:14.196Z,66.53
2022-11-29T04:10:52.894Z,68.15
2022-11-29T04:13:41.030Z,67.22
2022-11-29T04:16:21.667Z,64.88
2022-11-29T04:19:00.251Z,65.80
2022-11-29T04:21:32.582Z,65.35
2022-11-29T04:24:17.786Z,67.80
2022-11-29T04:27:34.284Z,63.78
2022-11-29T04:30:16.473Z,66.95
2022-11-29T04:33:16.758Z,65.53
2022-11-29T04:39:02.854Z,63.67
2022-11-29T04:42:11.096Z,65.00
2022-11-29T04:44:50.227Z,64.25
2022-11-29T04:47:38.716Z,67.85
2022-11-29T04:50:18.225Z,66.10
2022-11-29T04:53:08.669Z,67.32
2022-11-29T04:55:44.074Z,70.25
2022-11-29T04:58:34.221Z,73.70
2022-11-29T05:01:09.707Z,67.93
2022-11-29T05:03:46.988Z,67.97
2022-11-29T05:06:29.175Z,65.63
2022-11-29T05:09:04.786Z,67.18
2022-11-29T05:12:04.134Z,69.15
2022-11-29T05:14:49.340Z,69.07
2022-11-29T05:17:53.369Z,66.35
2022-11-29T05:20:28.842Z,66.75
2022-11-29T05:23:20.005Z,67.80
2022-11-29T05:26:07.533Z,66.38
2022-11-29T05:29:03.105Z,68.65
2022-11-29T05:31:48.664Z,69.63
2022-11-29T05:34:42.461Z,70.95
2022-11-29T05:37:15.091Z,69.40
2022-11-29T05:40:17.611Z,67.43
2022-11-29T05:43:02.381Z,67.85
2022-11-29T05:45:41.003Z,67.88
2022-11-29T05:48:14.247Z,68.45
2022-11-29T05:50:47.980Z,67.18
2022-11-29T05:53:31.281Z,68.93
2022-11-29T05:56:26.271Z,67.88
2022-11-29T05:59:07.477Z,67.07
2022-11-29T06:01:55.257Z,66.63
2022-11-29T06:04:33.296Z,73.40
2022-11-29T06:07:20.003Z,69.38
2022-11-29T06:10:00.598Z,70.32
2022-11-29T06:12:31.252Z,70.22
2022-11-29T06:15:17.542Z,68.35
2022-11-29T06:18:03.187Z,68.50
2022-11-29T06:20:35.474Z,72.45
2022-11-29T06:23:10.870Z,75.43
2022-11-29T06:26:16.717Z,72.15
2022-11-29T06:29:04.479Z,71.80
2022-11-29T06:31:39.476Z,73.70
2022-11-29T06:34:27.645Z,70.22
2022-11-29T06:37:19.974Z,69.63
2022-11-29T06:39:46.947Z,75.50
2022-11-29T06:42:13.343Z,71.55
2022-11-29T06:44:40.192Z,71.22
2022-11-29T06:47:23.320Z,68.55
2022-11-29T06:49:58.909Z,70.75
2022-11-29T06:52:42.790Z,64.55
2022-11-29T06:55:24.429Z,65.97
2022-11-29T06:57:53.985Z,65.35
2022-11-29T07:00:30.380Z,68.30
2022-11-29T07:03:06.629Z,69.93
2022-11-29T07:05:36.670Z,67.32
2022-11-29T07:08:13.962Z,66.90
2022-11-29T07:10:42.878Z,70.10
2022-11-29T07:13:15.989Z,70.13
2022-11-29T07:16:31.981Z,73.85
2022-11-29T07:18:58.390Z,66.80
2022-11-29T07:21:59.043Z,68.03
2022-11-29T07:24:49.210Z,67.45
2022-11-29T07:27:57.166Z,67.05
2022-11-29T07:30:52.236Z,63.88
2022-11-29T07:33:48.893Z,66.40
2022-11-29T07:36:38.888Z,68.25
2022-11-29T07:39:08.239Z,67.43
2022-11-29T07:42:25.443Z,70.27
2022-11-29T07:45:00.804Z,66.95
2022-11-29T07:47:31.258Z,67.78
2022-11-29T07:50:00.631Z,66.43
2022-11-29T07:52:28.221Z,65.05
2022-11-29T07:54:56.379Z,68.32
2022-11-29T07:57:22.827Z,67.28
2022-11-29T07:59:49.318Z,66.70
2022-11-29T08:02:26.650Z,65.57
2022-11-29T08:04:53.175Z,66.32
2022-11-29T08:07:19.615Z,69.88
2022-11-29T08:09:46.215Z,68.85
2022-11-29T08:12:13.074Z,72.18
2022-11-29T08:14:39.628Z,65.30
2022-11-29T08:17:06.157Z,67.60
2022-11-29T08:19:32.564Z,65.45
2022-11-29T08:21:58.983Z,68.65
2022-11-29T08:24:26.758Z,68.57
2022-11-29T08:26:53.403Z,65.53
2022-11-29T08:29:20.229Z,66.65
2022-11-29T08:31:53.273Z,66.35
2022-11-29T08:34:21.084Z,66.13
2022-11-29T08:36:49.414Z,61.13
2022-11-29T08:39:16.311Z,65.93
2022-11-29T08:41:43.045Z,67.55
2022-11-29T08:44:09.986Z,65.22
2022-11-29T08:46:55.087Z,62.88
2022-11-29T08:49:21.539Z,62.25
2022-11-29T08:51:47.966Z,62.67
2022-11-29T08:54:14.460Z,64.28
2022-11-29T08:59:27.574Z,60.13
2022-11-29T09:01:54.145Z,60.47
2022-11-29T09:04:20.637Z,64.00
2022-11-29T09:06:49.565Z,64.97
2022-11-29T09:09:16.584Z,61.28
2022-11-29T09:11:45.882Z,59.92
2022-11-29T09:14:17.122Z,59.92
2022-11-29T09:16:43.611Z,59.50
2022-11-29T09:19:10.785Z,59.80
2022-11-29T09:21:37.401Z,61.40
2022-11-29T09:24:06.467Z,58.78
2022-11-29T09:26:35.877Z,60.05
2022-11-29T09:29:04.455Z,61.60
2022-11-29T09:31:31.613Z,61.20
2022-11-29T09:33:58.345Z,59.72
2022-11-29T09:36:28.528Z,60.65
2022-11-29T09:38:58.386Z,57.92
2022-11-29T09:41:52.528Z,57.97
2022-11-29T09:44:18.851Z,56.00
2022-11-29T09:47:17.122Z,55.92
2022-11-29T09:49:52.409Z,60.33
2022-11-29T09:52:40.962Z,58.78
2022-11-29T09:55:29.169Z,60.25
2022-11-29T09:57:59.058Z,56.78
2022-11-29T10:00:26.089Z,58.38
2022-11-29T10:02:58.379Z,56.80
2022-11-29T10:05:47.548Z,61.28
2022-11-29T10:08:16.915Z,56.05
2022-11-29T10:10:47.897Z,62.13
2022-11-29T10:13:23.746Z,57.42
2022-11-29T10:15:56.286Z,60.83
2022-11-29T10:18:35.029Z,57.95
2022-11-29T10:21:11.090Z,56.17
2022-11-29T10:23:46.334Z,60.28
2022-11-29T10:26:13.302Z,58.63
2022-11-29T10:28:44.929Z,58.80
2022-11-29T10:31:27.497Z,58.15
2022-11-29T10:33:56.185Z,58.42
2022-11-29T10:36:22.667Z,61.97
2022-11-29T10:38:51.459Z,59.90
2022-11-29T10:41:22.554Z,61.15
2022-11-29T10:43:50.914Z,58.45
2022-11-29T10:46:30.258Z,59.88
2022-11-29T10:48:59.329Z,56.23
2022-11-29T10:51:25.935Z,59.95
2022-11-29T10:53:54.712Z,59.55
2022-11-29T10:56:31.214Z,60.53
2022-11-29T10:59:08.948Z,57.83
2022-11-29T11:01:44.020Z,59.90
2022-11-29T11:04:17.304Z,60.63
2022-11-29T11:06:51.499Z,63.25
2022-11-29T11:09:26.641Z,60.38
2022-11-29T11:11:57.084Z,57.55
2022-11-29T11:14:26.973Z,58.90
2022-11-29T11:16:54.023Z,58.65
2022-11-29T11:19:31.585Z,56.85
2022-11-29T11:22:00.734Z,56.92
2022-11-29T11:24:30.561Z,58.78
2022-11-29T11:26:57.881Z,58.53
2022-11-29T11:29:43.738Z,62.50
2022-11-29T11:32:20.029Z,58.40
2022-11-29T11:35:00.994Z,59.88
2022-11-29T11:37:32.380Z,59.22
2022-11-29T11:40:01.321Z,60.13
2022-11-29T11:42:40.280Z,58.05
2022-11-29T11:45:37.087Z,59.55
2022-11-29T11:48:14.967Z,60.92
2022-11-29T11:50:50.613Z,58.35
2022-11-29T11:53:37.800Z,59.90
2022-11-29T11:56:08.489Z,60.45
2022-11-29T11:58:49.516Z,62.55
2022-11-29T12:01:25.293Z,59.25
2022-11-29T12:03:51.689Z,60.00
2022-11-29T12:06:37.357Z,59.70
2022-11-29T12:09:27.994Z,60.70
2022-11-29T12:12:03.650Z,60.55
2022-11-29T12:14:46.249Z,61.17
2022-11-29T12:17:22.660Z,60.00
2022-11-29T12:20:07.600Z,62.17
2022-11-29T12:22:46.606Z,61.47
2022-11-29T12:25:23.790Z,61.03
2022-11-29T12:27:51.219Z,62.85
2022-11-29T12:30:20.535Z,62.45
2022-11-29T12:32:59.929Z,62.73
2022-11-29T12:35:53.165Z,62.70
2022-11-29T12:38:39.337Z,64.20
2022-11-29T12:41:32.207Z,63.55
2022-11-29T12:44:15.301Z,60.85
2022-11-29T12:47:02.152Z,60.00
2022-11-29T12:50:01.065Z,62.45
2022-11-29T12:52:41.438Z,61.33
2022-11-29T12:55:28.561Z,64.32
2022-11-29T12:58:13.942Z,65.05
2022-11-29T13:00:58.554Z,60.63
2022-11-29T13:03:36.715Z,64.88
2022-11-29T13:06:17.921Z,67.53
2022-11-29T13:08:50.500Z,64.28
2022-11-29T13:11:27.957Z,64.68
2022-11-29T13:14:40.821Z,62.70
2022-11-29T13:17:04.281Z,66.18
2022-11-29T13:19:39.049Z,64.47
2022-11-29T13:22:46.426Z,64.65
2022-11-29T13:25:24.390Z,61.35
2022-11-29T13:28:28.483Z,64.72
2022-11-29T13:31:02.308Z,61.30
2022-11-29T13:33:42.655Z,63.40
2022-11-29T13:39:02.617Z,61.78
2022-11-29T13:41:48.272Z,61.80
2022-11-29T13:44:27.300Z,61.42
2022-11-29T13:47:14.984Z,63.15
2022-11-29T13:49:53.418Z,65.13
2022-11-29T13:52:38.397Z,69.60
2022-11-29T13:55:04.860Z,65.00
2022-11-29T14:00:44.895Z,64.50
2022-11-29T14:03:23.401Z,65.05
2022-11-29T14:06:03.493Z,67.30
2022-11-29T14:08:47.672Z,65.85
2022-11-29T14:11:20.785Z,63.35
2022-11-29T14:14:02.758Z,67.10
2022-11-29T14:16:46.373Z,65.32
2022-11-29T14:19:23.783Z,67.65
2022-11-29T14:22:17.268Z,65.45
2022-11-29T14:24:56.771Z,63.13
2022-11-29T14:27:23.116Z,66.68
2022-11-29T14:29:49.678Z,67.55
2022-11-29T14:32:46.379Z,69.25
2022-11-29T14:35:13.284Z,65.70
2022-11-29T14:38:19.173Z,66.45
2022-11-29T14:40:59.935Z,69.32
2022-11-29T14:43:38.186Z,68.88
2022-11-29T14:46:16.766Z,68.63
2022-11-29T14:48:55.764Z,70.18
2022-11-29T14:51:25.908Z,70.13
2022-11-29T14:54:06.491Z,71.88
2022-11-29T14:56:34.927Z,70.43
2022-11-29T14:59:38.891Z,71.70
2022-11-29T15:02:20.984Z,71.53
2022-11-29T15:04:50.009Z,70.18
2022-11-29T15:07:23.915Z,72.55
2022-11-29T15:09:50.936Z,70.32
2022-11-29T15:12:21.524Z,70.78
2022-11-29T15:15:18.605Z,70.07
2022-11-29T15:18:12.220Z,73.60
2022-11-29T15:21:14.065Z,76.68
2022-11-29T15:23:42.920Z,68.60
2022-11-29T15:26:21.124Z,71.88
2022-11-29T15:28:48.104Z,74.03
2022-11-29T15:31:18.740Z,70.97
2022-11-29T15:33:48.053Z,71.70
2022-11-29T15:36:21.051Z,76.13
2022-11-29T15:38:48.580Z,73.47
2022-11-29T15:41:35.460Z,73.15
2022-11-29T15:44:05.570Z,73.10
2022-11-29T15:46:34.577Z,72.75
2022-11-29T15:49:25.719Z,73.53
2022-11-29T15:52:01.003Z,71.97
2022-11-29T15:54:37.123Z,72.85
2022-11-29T15:57:13.839Z,73.20
2022-11-29T15:59:48.562Z,73.95
2022-11-29T16:02:20.853Z,73.97
2022-11-29T16:04:50.415Z,72.85
2022-11-29T16:07:20.213Z,71.22
2022-11-29T16:10:10.505Z,73.72
2022-11-29T16:12:55.645Z,73.22
2022-11-29T16:15:37.202Z,75.35
2022-11-29T16:18:14.284Z,72.15
2022-11-29T16:20:40.824Z,75.80
2022-11-29T16:23:15.462Z,76.90
2022-11-29T16:25:59.117Z,72.25
2022-11-29T16:28:31.356Z,73.57
2022-11-29T16:30:58.487Z,70.60
2022-11-29T16:33:25.008Z,78.22
2022-11-29T16:36:02.352Z,72.00
2022-11-29T16:38:28.912Z,76.90
2022-11-29T16:41:34.922Z,78.82
2022-11-29T16:44:06.063Z,69.82
2022-11-29T16:46:41.871Z,70.80
2022-11-29T16:49:36.016Z,73.93
2022-11-29T16:52:04.315Z,66.68
2022-11-29T16:54:35.519Z,68.03
2022-11-29T16:57:06.249Z,72.93
2022-11-29T16:59:36.525Z,73.68
2022-11-29T17:04:32.315Z,68.70
2022-11-29T17:06:59.515Z,72.70
2022-11-29T17:09:29.498Z,75.35
2022-11-29T17:11:56.782Z,73.22
2022-11-29T17:14:23.431Z,75.78
2022-11-29T17:16:50.408Z,76.18
2022-11-29T17:19:18.236Z,75.68
2022-11-29T17:21:45.344Z,73.38
2022-11-29T17:24:15.566Z,73.32
2022-11-29T17:29:14.258Z,74.00
2022-11-29T17:31:42.292Z,74.05
2022-11-29T17:34:08.917Z,75.07
2022-11-29T17:36:35.389Z,78.75
2022-11-29T17:39:03.329Z,77.28
2022-11-29T17:41:33.949Z,75.28
2022-11-29T17:44:00.718Z,72.47
2022-11-29T17:46:32.449Z,73.88
2022-11-29T17:49:00.591Z,72.45
2022-11-29T17:54:13.714Z,75.50
2022-11-29T17:56:40.119Z,72.28
2022-11-29T17:59:06.577Z,73.10
2022-11-29T18:01:35.602Z,73.03
2022-11-29T18:04:03.982Z,76.90
2022-11-29T18:06:37.804Z,75.10
2022-11-29T18:09:05.920Z,76.50
2022-11-29T18:11:43.291Z,74.00
2022-11-29T18:14:15.353Z,74.68
2022-11-29T18:16:41.974Z,71.45
2022-11-29T18:19:11.806Z,70.90
2022-11-29T18:21:38.434Z,75.43
2022-11-29T18:24:06.021Z,72.60
2022-11-29T18:26:34.105Z,72.32
2022-11-29T18:29:00.840Z,72.57
2022-11-29T18:31:33.313Z,71.00
2022-11-29T18:34:02.190Z,72.75
2022-11-29T18:36:35.017Z,74.78
2022-11-29T18:39:05.285Z,71.10
2022-11-29T18:44:05.124Z,69.78
2022-11-29T18:46:36.759Z,70.05
2022-11-29T18:49:05.284Z,71.97
2022-11-29T18:51:32.290Z,77.18
2022-11-29T18:53:59.234Z,76.63
2022-11-29T18:56:28.263Z,73.72
2022-11-29T18:58:58.461Z,73.60
2022-11-29T19:01:27.532Z,75.18
2022-11-29T19:03:56.087Z,76.93
2022-11-29T19:06:25.250Z,74.57
2022-11-29T19:08:52.739Z,73.50
2022-11-29T19:11:21.855Z,83.53
2022-11-29T19:13:55.079Z,76.47
2022-11-29T19:16:25.331Z,73.68
2022-11-29T19:21:20.741Z,73.03
2022-11-29T19:23:55.193Z,73.80
2022-11-29T19:26:23.123Z,74.97
2022-11-29T19:28:49.900Z,76.97
2022-11-29T19:31:18.890Z,74.70
2022-11-29T19:33:46.486Z,78.00
2022-11-29T19:36:22.314Z,79.28
2022-11-29T19:38:53.340Z,75.90
2022-11-29T19:41:22.048Z,75.63
2022-11-29T19:43:48.971Z,76.40
2022-11-29T19:46:18.904Z,77.25
2022-11-29T19:48:45.964Z,79.88
2022-11-29T19:51:16.507Z,74.80
2022-11-29T19:53:43.688Z,75.10
2022-11-29T19:56:15.734Z,76.18
2022-11-29T19:58:43.119Z,74.38
2022-11-29T20:01:12.249Z,74.47
2022-11-29T20:03:39.489Z,77.43
2022-11-29T20:06:06.770Z,77.88
2022-11-29T20:08:33.524Z,73.93
2022-11-29T20:11:20.710Z,75.32
2022-11-29T20:13:53.145Z,74.22
2022-11-29T20:16:20.108Z,73.90
2022-11-29T20:18:51.237Z,73.72
2022-11-29T20:21:20.934Z,82.18
2022-11-29T20:23:48.916Z,74.57
2022-11-29T20:26:18.976Z,76.63
2022-11-29T20:28:47.301Z,80.43
2022-11-29T20:31:16.406Z,78.13
2022-11-29T20:33:44.922Z,76.18
2022-11-29T20:36:47.837Z,74.43
2022-11-29T20:39:23.893Z,72.90
2022-11-29T20:41:53.464Z,73.18
2022-11-29T20:44:24.205Z,73.22
2022-11-29T20:46:50.903Z,76.50
2022-11-29T20:49:18.158Z,75.07
2022-11-29T20:51:53.246Z,76.07
2022-11-29T20:54:20.110Z,75.80
2022-11-29T20:56:46.577Z,73.93
2022-11-29T20:59:13.078Z,78.55
2022-11-29T21:01:39.705Z,79.60
2022-11-29T21:04:06.277Z,77.60
2022-11-29T21:06:37.654Z,73.22
2022-11-29T21:09:04.771Z,75.05
2022-11-29T21:11:32.207Z,73.60
2022-11-29T21:13:58.850Z,75.40
2022-11-29T21:16:29.437Z,75.07
2022-11-29T21:18:59.959Z,75.43
2022-11-29T21:21:30.165Z,75.95
2022-11-29T21:26:44.591Z,71.63
2022-11-29T21:29:14.150Z,71.63
2022-11-29T21:31:41.091Z,72.43
2022-11-29T21:34:08.573Z,73.55
2022-11-29T21:36:36.897Z,75.65
2022-11-29T21:39:05.613Z,74.60
2022-11-29T21:41:32.344Z,75.85
2022-11-29T21:44:06.713Z,73.95
2022-11-29T21:46:34.321Z,70.45
2022-11-29T21:49:00.799Z,73.90
2022-11-29T21:51:27.211Z,74.50
2022-11-29T21:53:53.666Z,74.43
2022-11-29T21:56:20.051Z,78.72
2022-11-29T21:58:46.475Z,77.30
2022-11-29T22:01:16.738Z,76.30
2022-11-29T22:06:12.166Z,74.25
2022-11-29T22:08:40.876Z,69.85
2022-11-29T22:11:13.307Z,75.72
2022-11-29T22:14:01.503Z,75.88
2022-11-29T22:16:29.364Z,71.68
2022-11-29T22:18:55.990Z,73.32
2022-11-29T22:21:22.576Z,73.78
2022-11-29T22:23:48.967Z,72.80
2022-11-29T22:26:15.562Z,70.40
2022-11-29T22:28:42.020Z,72.93
2022-11-29T22:31:11.084Z,72.88
2022-11-29T22:33:38.626Z,79.10
2022-11-29T22:36:11.080Z,76.05
2022-11-29T22:38:38.512Z,75.95
2022-11-29T22:41:08.038Z,73.90
2022-11-29T22:43:34.912Z,73.93
2022-11-29T22:46:05.646Z,74.00
2022-11-29T22:48:38.188Z,70.95
2022-11-29T22:51:17.366Z,72.35
2022-11-29T22:53:54.221Z,71.03
2022-11-29T22:56:22.114Z,73.15
2022-11-29T22:58:48.618Z,72.47
2022-11-29T23:01:17.334Z,73.15
2022-11-29T23:03:48.062Z,74.20
2022-11-29T23:06:17.047Z,75.60
2022-11-29T23:08:44.812Z,71.80
2022-11-29T23:11:13.932Z,72.03
2022-11-29T23:13:41.866Z,71.22
2022-11-29T23:16:11.889Z,70.53
2022-11-29T23:18:39.779Z,71.82
2022-11-29T23:21:12.530Z,73.57
2022-11-29T23:23:38.966Z,72.45
2022-11-29T23:26:06.835Z,74.20
2022-11-29T23:28:34.678Z,72.50
2022-11-29T23:31:01.402Z,74.78
2022-11-29T23:33:28.324Z,73.53
2022-11-29T23:36:03.339Z,73.90
2022-11-29T23:38:29.786Z,71.60
2022-11-29T23:40:56.825Z,71.15
2022-11-29T23:43:23.644Z,74.97
2022-11-29T23:45:50.811Z,72.32
2022-11-29T23:48:17.467Z,69.88
2022-11-29T23:50:43.878Z,70.63
2022-11-29T23:53:13.187Z,69.90
2022-11-29T23:55:39.904Z,74.57
2022-11-29T23:58:09.451Z,71.80
